Time;durP1;ratioP1;P1;durP2;ratioP2;P2;SDS_P1;SDS_P2;PMS_P1;PMS_P2;Temp;Humidity;BMP_temperature;BMP_pressure;BME280_temperature;BME280_humidity;BME280_pressure;Samples;Min_cycle;Max_cycle;Signal;HPM_P1;HPM_P2
2023/12/01 00:02:11;;;;;;;0.10;0.10;;;;;;;2.45;72.86;100840.47;4827548;29;20058;-90
2023/12/01 00:04:37;;;;;;;0.10;0.10;;;;;;;2.44;73.49;100848.97;4812452;29;20070;-90
2023/12/01 00:07:03;;;;;;;0.10;0.10;;;;;;;2.44;73.05;100850.69;4812662;29;20098;-92
2023/12/01 00:09:29;;;;;;;0.10;0.10;;;;;;;2.56;72.86;100861.63;4827251;29;20022;-92
2023/12/01 00:11:54;;;;;;;0.10;0.10;;;;;;;2.66;72.42;100874.28;4812536;29;20105;-90
2023/12/01 00:14:20;;;;;;;0.20;0.20;;;;;;;2.61;72.28;100869.22;4827374;29;20050;-92
2023/12/01 00:16:45;;;;;;;0.20;0.20;;;;;;;2.60;72.28;100864.97;4827025;29;20069;-91
2023/12/01 00:19:11;;;;;;;0.20;0.20;;;;;;;2.45;72.70;100840.47;4811940;29;20401;-90
2023/12/01 00:21:37;;;;;;;0.10;0.10;;;;;;;2.65;72.25;100859.81;4827216;29;20524;-92
2023/12/01 00:24:02;;;;;;;0.10;0.10;;;;;;;2.56;72.92;100859.06;4812196;29;20037;-90
2023/12/01 00:26:28;;;;;;;0.10;0.10;;;;;;;2.53;73.25;100859.09;4843414;29;20040;-91
2023/12/01 00:28:53;;;;;;;0.20;0.20;;;;;;;2.45;73.04;100860.03;4812077;29;20030;-91
2023/12/01 00:31:19;;;;;;;0.10;0.10;;;;;;;2.54;73.06;100860.78;4812053;29;20049;-92
2023/12/01 00:33:44;;;;;;;0.10;0.10;;;;;;;2.48;72.65;100850.66;4812032;29;20350;-91
2023/12/01 00:36:10;;;;;;;0.20;0.20;;;;;;;2.67;72.73;100870.88;4827190;29;20030;-91
2023/12/01 00:38:36;;;;;;;0.10;0.10;;;;;;;2.54;72.55;100855.66;4826793;29;20066;-92
2023/12/01 00:41:01;;;;;;;0.10;0.10;;;;;;;2.55;72.60;100856.50;4811708;29;20090;-91
2023/12/01 00:43:27;;;;;;;0.10;0.10;;;;;;;2.66;72.77;100874.28;4811931;29;20606;-90
2023/12/01 00:45:53;;;;;;;0.20;0.20;;;;;;;2.65;72.75;100857.25;4812096;29;20492;-91
2023/12/01 00:48:19;;;;;;;0.20;0.20;;;;;;;2.66;72.38;100857.25;4826739;29;20049;-90
2023/12/01 00:50:44;;;;;;;0.20;0.20;;;;;;;2.72;72.21;100861.41;4811754;29;20034;-92
2023/12/01 00:53:10;;;;;;;0.20;0.20;;;;;;;2.69;72.04;100869.13;4811218;29;20110;-92
2023/12/01 00:55:36;;;;;;;0.10;0.10;;;;;;;2.69;71.92;100864.88;4796646;29;20034;-91
2023/12/01 00:58:02;;;;;;;0.20;0.20;;;;;;;2.67;71.70;100860.66;4811574;29;20054;-90
2023/12/01 01:00:27;;;;;;;0.10;0.10;;;;;;;2.55;72.16;100859.91;4826663;29;20117;-91
2023/12/01 01:02:53;;;;;;;0.10;0.10;;;;;;;2.56;72.16;100871.00;4811429;29;20069;-92
2023/12/01 01:05:18;;;;;;;0.20;0.20;;;;;;;2.62;72.03;100862.41;4811258;29;20113;-88
2023/12/01 01:07:44;;;;;;;0.20;0.20;;;;;;;2.58;72.45;100866.72;4811464;29;20061;-92
2023/12/01 01:10:10;;;;;;;0.10;0.10;;;;;;;2.55;72.47;100859.06;4826716;29;20046;-92
2023/12/01 01:12:35;;;;;;;0.20;0.20;;;;;;;2.57;72.27;100860.75;4796390;29;20129;-90
2023/12/01 01:15:03;;;;;;;0.10;0.10;;;;;;;2.58;71.80;100870.13;4811160;29;20075;-92
2023/12/01 01:17:32;;;;;;;0.20;0.20;;;;;;;2.45;72.39;100845.56;4812085;29;20503;-91
2023/12/01 01:19:59;;;;;;;0.10;0.10;;;;;;;2.40;72.29;100832.03;4825917;29;20034;-91
2023/12/01 01:22:25;;;;;;;0.20;0.20;;;;;;;2.49;72.32;100854.06;4826204;29;20122;-91
2023/12/01 01:24:51;;;;;;;0.20;0.20;;;;;;;2.45;72.19;100850.69;4796255;29;20120;-91
2023/12/01 01:27:16;;;;;;;0.10;0.10;;;;;;;2.44;72.48;100853.25;4795930;29;20030;-91
2023/12/01 01:29:43;;;;;;;0.10;0.10;;;;;;;2.37;72.59;100847.41;4811145;29;20037;-91
2023/12/01 01:32:08;;;;;;;0.20;0.20;;;;;;;2.42;72.70;100843.06;4796207;29;20417;-90
2023/12/01 01:34:34;;;;;;;0.20;0.20;;;;;;;2.45;72.39;100824.28;4825836;29;20037;-91
2023/12/01 01:37:00;;;;;;;0.20;0.20;;;;;;;2.50;72.29;100825.09;4825866;29;20416;-91
2023/12/01 01:39:26;;;;;;;0.10;0.10;;;;;;;2.54;72.03;100824.19;4825953;29;20500;-90
2023/12/01 01:41:53;;;;;;;0.20;0.20;;;;;;;2.47;72.01;100818.31;4811286;29;20149;-91
2023/12/01 01:44:18;;;;;;;0.20;0.20;;;;;;;2.49;71.72;100810.63;4796301;29;20045;-91
2023/12/01 01:46:45;;;;;;;0.10;0.10;;;;;;;2.52;71.78;100805.47;4826108;29;20033;-90
2023/12/01 01:49:11;;;;;;;0.20;0.20;;;;;;;2.42;72.11;100809.88;4810605;29;20044;-91
2023/12/01 01:51:36;;;;;;;0.20;0.20;;;;;;;2.51;71.95;100807.19;4810411;29;20120;-92
2023/12/01 01:54:03;;;;;;;0.10;0.10;;;;;;;2.42;72.14;100807.31;4810984;29;20082;-92
2023/12/01 01:56:30;;;;;;;0.20;0.20;;;;;;;2.47;71.76;100808.13;4811016;29;20053;-90
2023/12/01 01:58:55;;;;;;;0.20;0.20;;;;;;;2.45;72.13;100807.25;4810623;29;20489;-91
2023/12/01 02:01:22;;;;;;;0.20;0.20;;;;;;;2.33;72.18;100812.53;4810301;29;20092;-89
2023/12/01 02:03:47;;;;;;;0.10;0.10;;;;;;;2.43;72.26;100815.81;4810546;29;20412;-90
2023/12/01 02:06:13;;;;;;;0.20;0.20;;;;;;;2.40;72.36;100811.59;4795404;29;20029;-90
2023/12/01 02:08:39;;;;;;;0.10;0.10;;;;;;;2.34;72.46;100804.00;4810579;29;20034;-91
2023/12/01 02:11:05;;;;;;;0.10;0.10;;;;;;;2.39;72.23;100807.34;4810468;29;20038;-92
2023/12/01 02:13:30;;;;;;;0.20;0.20;;;;;;;2.37;72.24;100796.31;4809924;29;20066;-91
2023/12/01 02:15:56;;;;;;;0.20;0.20;;;;;;;2.34;72.78;100785.28;4841884;29;20033;-91
2023/12/01 02:18:22;;;;;;;0.10;0.10;;;;;;;2.30;72.87;100800.66;4810027;29;20065;-91
2023/12/01 02:20:48;;;;;;;0.10;0.10;;;;;;;2.21;73.00;100797.38;4825569;29;20029;-92
2023/12/01 02:23:13;;;;;;;0.10;0.10;;;;;;;2.20;73.38;100805.88;4810244;29;20052;-91
2023/12/01 02:25:39;;;;;;;0.20;0.20;;;;;;;2.19;73.48;100806.75;4795221;29;20033;-92
2023/12/01 02:28:04;;;;;;;0.20;0.20;;;;;;;2.07;73.28;100771.19;4810331;29;20038;-92
2023/12/01 02:30:30;;;;;;;0.10;0.10;;;;;;;2.16;73.17;100782.09;4825125;29;20026;-91
2023/12/01 02:32:55;;;;;;;0.10;0.10;;;;;;;2.19;73.26;100776.13;4824786;29;20084;-91
2023/12/01 02:35:22;;;;;;;0.13;0.13;;;;;;;2.17;73.10;100752.34;4825078;29;20030;-93
2023/12/01 02:37:48;;;;;;;0.10;0.10;;;;;;;2.23;73.13;100773.50;4809874;29;20037;-90
2023/12/01 02:40:16;;;;;;;0.20;0.20;;;;;;;2.22;73.02;100781.19;4810089;29;20452;-90
2023/12/01 02:42:48;;;;;;;0.20;0.20;;;;;;;2.26;73.29;100767.50;4840992;29;20058;-89
2023/12/01 02:45:14;;;;;;;0.20;0.20;;;;;;;2.27;73.29;100766.66;4810115;29;20098;-90
2023/12/01 02:47:40;;;;;;;0.20;0.20;;;;;;;2.14;73.50;100749.81;4809547;29;20037;-91
2023/12/01 02:50:09;;;;;;;0.20;0.20;;;;;;;2.13;73.59;100771.09;4809840;29;20089;-91
2023/12/01 02:52:36;;;;;;;0.10;0.10;;;;;;;2.08;73.70;100767.75;4810970;29;20034;-91
2023/12/01 02:55:02;;;;;;;0.10;0.10;;;;;;;2.19;73.48;100761.66;4809923;29;20143;-91
2023/12/01 02:57:28;;;;;;;0.10;0.10;;;;;;;2.24;73.70;100775.19;4809837;29;20536;-91
2023/12/01 02:59:53;;;;;;;0.20;0.20;;;;;;;2.19;73.17;100776.13;4825050;29;20086;-91
2023/12/01 03:02:19;;;;;;;0.10;0.10;;;;;;;2.19;73.26;100773.56;4794470;29;20421;-90
2023/12/01 03:04:44;;;;;;;0.10;0.10;;;;;;;2.15;73.15;100771.91;4809459;29;20595;-90
2023/12/01 03:07:10;;;;;;;0.20;0.20;;;;;;;2.03;73.78;100760.13;4794678;29;20424;-91
2023/12/01 03:09:36;;;;;;;0.20;0.20;;;;;;;2.09;74.13;100769.44;4824819;29;20401;-91
2023/12/01 03:12:03;;;;;;;0.10;0.10;;;;;;;2.25;73.62;100786.25;4825164;29;20026;-89
2023/12/01 03:14:29;;;;;;;0.20;0.20;;;;;;;2.23;73.60;100762.44;4809940;29;20041;-90
2023/12/01 03:16:56;;;;;;;0.20;0.20;;;;;;;2.24;73.58;100764.97;4794052;29;20026;-90
2023/12/01 03:19:22;;;;;;;0.10;0.10;;;;;;;2.29;73.62;100759.84;4809368;29;20094;-91
2023/12/01 03:21:48;;;;;;;0.10;0.10;;;;;;;2.20;74.07;100757.41;4809558;29;20044;-90
2023/12/01 03:24:14;;;;;;;0.20;0.20;;;;;;;2.27;73.81;100764.13;4810121;29;20034;-91
2023/12/01 03:26:39;;;;;;;0.20;0.20;;;;;;;2.21;73.74;100756.53;4813015;29;20033;-91
2023/12/01 03:29:05;;;;;;;0.20;0.20;;;;;;;2.24;73.75;100751.38;4798027;29;20038;-90
2023/12/01 03:31:30;;;;;;;0.20;0.20;;;;;;;2.41;73.30;100738.41;4828232;29;20030;-92
2023/12/01 03:33:56;;;;;;;0.20;0.20;;;;;;;2.35;73.44;100741.84;4813111;29;20117;-92
2023/12/01 03:36:21;;;;;;;0.10;0.10;;;;;;;2.40;73.28;100737.56;4812961;29;20038;-91
2023/12/01 03:38:47;;;;;;;0.10;0.10;;;;;;;2.28;73.28;100741.13;4828097;29;20117;-93
2023/12/01 03:41:13;;;;;;;0.10;0.10;;;;;;;2.32;73.69;100734.25;4812906;29;20057;-91
2023/12/01 03:43:39;;;;;;;0.15;0.15;;;;;;;2.31;72.94;100740.22;4812798;29;20033;-92
2023/12/01 03:46:05;;;;;;;0.10;0.10;;;;;;;2.32;72.83;100749.56;4812747;29;20048;-91
2023/12/01 03:48:33;;;;;;;0.10;0.10;;;;;;;2.21;73.32;100748.88;4812987;29;20082;-92
2023/12/01 03:51:00;;;;;;;0.10;0.10;;;;;;;2.16;73.37;100733.59;4827376;29;20102;-91
2023/12/01 03:53:25;;;;;;;0.10;0.10;;;;;;;2.16;73.38;100736.16;4812829;29;20030;-91
2023/12/01 03:55:51;;;;;;;0.20;0.20;;;;;;;2.13;73.29;100725.16;4812753;29;20034;-91
2023/12/01 03:58:17;;;;;;;0.20;0.20;;;;;;;2.29;73.20;100742.81;4827245;29;20085;-87
2023/12/01 04:00:43;;;;;;;0.20;0.20;;;;;;;2.26;72.86;100706.25;4796938;29;20128;-89
2023/12/01 04:03:08;;;;;;;0.20;0.20;;;;;;;2.61;72.55;100722.78;4827356;29;20464;-91
2023/12/01 04:05:34;;;;;;;0.20;0.20;;;;;;;2.73;72.32;100697.91;4827263;29;20544;-91
2023/12/01 04:07:59;;;;;;;0.10;0.10;;;;;;;2.68;71.55;100691.19;4827427;29;20030;-90
2023/12/01 04:10:25;;;;;;;0.20;0.20;;;;;;;2.66;71.88;100682.72;4827232;29;20034;-91
2023/12/01 04:12:51;;;;;;;0.10;0.10;;;;;;;2.71;72.11;100694.53;4797182;29;20037;-91
2023/12/01 04:15:18;;;;;;;0.20;0.20;;;;;;;2.65;71.99;100691.22;4812086;29;20065;-91
2023/12/01 04:17:45;;;;;;;0.20;0.20;;;;;;;2.63;71.53;100685.28;4812431;29;20361;-90
2023/12/01 04:20:20;;;;;;;0.10;0.10;;;;;;;2.67;71.62;100676.72;4812239;29;20116;-90
2023/12/01 04:22:50;;;;;;;0.20;0.20;;;;;;;2.62;71.69;100678.50;4814603;29;20034;-90
2023/12/01 04:25:16;;;;;;;0.20;0.20;;;;;;;2.64;71.75;100682.72;4796915;29;20038;-88
2023/12/01 04:27:43;;;;;;;0.10;0.10;;;;;;;2.60;72.10;100686.19;4808740;29;20078;-89
2023/12/01 04:30:14;;;;;;;0.20;0.20;;;;;;;2.50;72.34;100682.94;4841034;29;20086;-87
2023/12/01 04:32:52;;;;;;;0.20;0.20;;;;;;;2.60;71.99;100681.09;4841077;29;20041;-90
2023/12/01 04:35:19;;;;;;;0.10;0.10;;;;;;;2.59;71.92;100671.72;4826329;29;20026;-90
2023/12/01 04:37:45;;;;;;;0.20;0.20;;;;;;;2.53;72.50;100659.88;4826121;29;20039;-89
2023/12/01 04:40:17;;;;;;;0.20;0.20;;;;;;;2.52;72.77;100683.75;4826379;29;20070;-90
2023/12/01 04:42:46;;;;;;;0.20;0.20;;;;;;;2.51;72.86;100666.75;4822880;29;20058;-88
2023/12/01 04:45:13;;;;;;;0.10;0.10;;;;;;;2.59;72.83;100664.06;4823198;29;20129;-89
2023/12/01 04:47:42;;;;;;;0.20;0.20;;;;;;;2.68;72.26;100668.19;4823918;29;20037;-90
2023/12/01 04:50:12;;;;;;;0.20;0.20;;;;;;;2.61;72.71;100654.66;4823488;29;20034;-90
2023/12/01 04:52:50;;;;;;;0.10;0.10;;;;;;;2.61;72.23;100667.44;4823593;29;20030;-91
2023/12/01 04:55:17;;;;;;;0.20;0.20;;;;;;;2.54;72.78;100676.91;4837505;29;20065;-88
2023/12/01 04:57:43;;;;;;;0.20;0.20;;;;;;;2.49;72.77;100665.94;4823099;29;20087;-92
2023/12/01 05:00:20;;;;;;;0.20;0.20;;;;;;;2.64;72.70;100666.53;4838743;29;20079;-89
2023/12/01 05:02:47;;;;;;;0.20;0.20;;;;;;;2.59;72.78;100657.25;4823005;29;20514;-89
2023/12/01 05:05:17;;;;;;;0.20;0.20;;;;;;;2.63;72.51;100669.97;4823111;29;20232;-88
2023/12/01 05:07:43;;;;;;;0.10;0.10;;;;;;;2.64;72.55;100661.44;4822253;29;20042;-85
2023/12/01 05:10:14;;;;;;;0.20;0.20;;;;;;;2.62;72.13;100663.19;4821017;29;20041;-87
2023/12/01 05:12:44;;;;;;;0.10;0.10;;;;;;;2.66;72.16;100655.47;4820590;29;20030;-87
2023/12/01 05:15:15;;;;;;;0.10;0.10;;;;;;;2.61;73.27;100654.66;4821812;29;20086;-88
2023/12/01 05:17:54;;;;;;;0.20;0.20;;;;;;;2.40;73.53;100640.53;4809495;29;20023;-86
2023/12/01 05:20:19;;;;;;;0.20;0.20;;;;;;;2.46;73.29;100637.91;4820554;29;20037;-85
2023/12/01 05:22:53;;;;;;;0.10;0.10;;;;;;;2.52;73.02;100632.66;4841840;29;20034;-87
2023/12/01 05:25:19;;;;;;;0.10;0.10;;;;;;;2.56;72.60;100633.47;4840079;29;20068;-83
2023/12/01 05:27:46;;;;;;;0.20;0.20;;;;;;;2.55;72.63;100627.50;4839899;29;20033;-91
2023/12/01 05:30:13;;;;;;;0.20;0.20;;;;;;;2.48;73.29;100627.66;4841520;29;20063;-89
2023/12/01 05:32:40;;;;;;;0.20;0.20;;;;;;;2.55;73.29;100642.81;4826585;29;20098;-88
2023/12/01 05:35:10;;;;;;;0.20;0.20;;;;;;;2.51;73.05;100636.09;4828694;29;20030;-85
2023/12/01 05:37:48;;;;;;;0.20;0.20;;;;;;;2.48;73.41;100641.25;4824866;29;20029;-90
2023/12/01 05:40:16;;;;;;;0.10;0.10;;;;;;;2.48;73.10;100655.75;4839692;29;20038;-84
2023/12/01 05:42:42;;;;;;;0.20;0.20;;;;;;;2.43;73.32;100647.28;4838375;29;20135;-85
2023/12/01 05:45:14;;;;;;;0.10;0.10;;;;;;;2.44;73.68;100654.91;4787919;29;20083;-84
2023/12/01 05:47:50;;;;;;;0.20;0.20;;;;;;;2.57;73.21;100658.16;4803687;29;20034;-84
2023/12/01 05:50:16;;;;;;;0.20;0.20;;;;;;;2.65;73.14;100658.00;4804139;29;20565;-86
2023/12/01 05:52:42;;;;;;;0.20;0.20;;;;;;;2.61;73.17;100636.78;4807200;29;20109;-84
2023/12/01 05:55:14;;;;;;;0.20;0.20;;;;;;;2.55;73.23;100637.72;4819083;29;20042;-90
2023/12/01 05:57:43;;;;;;;;;;;;;;;2.70;72.84;100641.75;4803092;29;20601;-86
2023/12/01 06:00:20;;;;;;;0.20;0.20;;;;;;;2.52;73.36;100642.88;4822530;29;20011;-88
2023/12/01 06:02:46;;;;;;;0.20;0.20;;;;;;;2.46;73.41;100630.22;4821038;29;20030;-88
2023/12/01 06:05:15;;;;;;;0.20;0.20;;;;;;;2.59;73.81;100638.53;4820320;29;20033;-89
2023/12/01 06:07:42;;;;;;;0.20;0.20;;;;;;;2.69;72.97;100639.22;4823025;29;20030;-84
2023/12/01 06:10:08;;;;;;;0.20;0.20;;;;;;;2.67;72.92;100623.94;4832972;29;20050;-90
2023/12/01 06:12:34;;;;;;;0.20;0.20;;;;;;;2.72;72.87;100632.34;4803486;29;20057;-90
2023/12/01 06:15:00;;;;;;;0.20;0.20;;;;;;;2.71;72.54;100617.06;4839145;29;20057;-87
2023/12/01 06:17:25;;;;;;;0.20;0.20;;;;;;;2.75;72.03;100629.75;4838565;29;20476;-87
2023/12/01 06:19:51;;;;;;;0.20;0.20;;;;;;;2.62;71.57;100622.31;4834822;29;20058;-82
2023/12/01 06:22:16;;;;;;;0.20;0.20;;;;;;;2.69;72.08;100629.84;4820142;29;20038;-85
2023/12/01 06:24:42;;;;;;;0.10;0.10;;;;;;;2.70;71.65;100630.69;4833317;29;20030;-86
2023/12/01 06:27:08;;;;;;;0.20;0.20;;;;;;;2.70;71.69;100628.97;4820366;29;20026;-82
2023/12/01 06:29:34;;;;;;;0.20;0.20;;;;;;;2.73;70.96;100620.41;4821776;29;20121;-87
2023/12/01 06:32:00;;;;;;;0.20;0.20;;;;;;;2.81;70.89;100631.34;4795864;29;20175;-82
2023/12/01 06:34:25;;;;;;;0.20;0.20;;;;;;;2.81;70.64;100634.75;4801258;29;20114;-82
2023/12/01 06:36:51;;;;;;;0.20;0.20;;;;;;;2.72;70.67;100623.84;4795405;29;20038;-82
2023/12/01 06:39:16;;;;;;;0.20;0.20;;;;;;;2.93;69.94;100646.47;4835104;29;20117;-90
2023/12/01 06:41:42;;;;;;;0.20;0.20;;;;;;;2.93;70.32;100655.84;4832617;29;20054;-87
2023/12/01 06:44:07;;;;;;;0.20;0.20;;;;;;;2.90;70.38;100649.09;4803807;29;20030;-91
2023/12/01 06:46:33;;;;;;;0.20;0.20;;;;;;;2.94;70.63;100650.72;4827900;29;20041;-91
2023/12/01 06:48:59;;;;;;;0.20;0.20;;;;;;;3.05;70.44;100659.06;4824362;29;20038;-89
2023/12/01 06:51:25;;;;;;;0.20;0.20;;;;;;;3.04;69.80;100661.63;4816600;29;20037;-85
2023/12/01 06:53:50;;;;;;;0.20;0.20;;;;;;;2.92;70.58;100641.38;4786893;29;20061;-83
2023/12/01 06:56:16;;;;;;;0.10;0.10;;;;;;;2.99;70.70;100643.81;4805124;29;20042;-86
2023/12/01 06:58:42;;;;;;;0.20;0.20;;;;;;;2.92;70.21;100647.34;4819922;29;20486;-90
2023/12/01 07:01:07;;;;;;;0.20;0.20;;;;;;;2.92;70.50;100662.66;4805364;29;20106;-91
2023/12/01 07:03:33;;;;;;;0.20;0.20;;;;;;;2.95;71.01;100666.88;4799934;29;20494;-89
2023/12/01 07:05:58;;;;;;;0.20;0.20;;;;;;;2.71;71.87;100665.59;4818998;29;20480;-91
2023/12/01 07:08:24;;;;;;;0.20;0.20;;;;;;;2.91;71.50;100666.09;4804511;29;20561;-91
2023/12/01 07:10:51;;;;;;;0.20;0.20;;;;;;;2.61;71.98;100635.94;4820924;29;20030;-86
2023/12/01 07:13:17;;;;;;;0.10;0.10;;;;;;;2.93;72.49;100673.72;4820890;29;20046;-84
2023/12/01 07:15:43;;;;;;;0.10;0.10;;;;;;;2.92;72.58;100655.00;4804893;29;20035;-87
2023/12/01 07:18:09;;;;;;;0.20;0.20;;;;;;;2.88;72.52;100638.91;4836733;29;20454;-86
2023/12/01 07:20:35;;;;;;;0.10;0.10;;;;;;;2.92;72.99;100651.59;4827953;29;20038;-92
2023/12/01 07:23:00;;;;;;;0.20;0.20;;;;;;;2.98;71.72;100636.19;4807330;29;20084;-86
2023/12/01 07:25:26;;;;;;;0.20;0.20;;;;;;;2.95;72.16;100642.19;4815585;29;20062;-87
2023/12/01 07:27:56;;;;;;;0.20;0.20;;;;;;;3.13;71.80;100662.28;4816345;29;20054;-85
2023/12/01 07:30:22;;;;;;;0.20;0.20;;;;;;;3.03;72.10;100658.22;4805008;29;20362;-83
2023/12/01 07:33:07;;;;;;;0.20;0.20;;;;;;;2.93;72.08;100643.91;4833163;29;20067;-84
2023/12/01 07:35:34;;;;;;;0.20;0.20;;;;;;;2.99;72.15;100650.63;4851119;29;20540;-85
2023/12/01 07:37:59;;;;;;;0.20;0.20;;;;;;;3.21;72.07;100634.03;4853146;29;20034;-90
2023/12/01 07:40:25;;;;;;;0.20;0.20;;;;;;;3.24;72.10;100635.69;4841201;29;20041;-91
2023/12/01 07:42:51;;;;;;;0.20;0.20;;;;;;;3.35;72.11;100626.97;4842349;29;20088;-91
2023/12/01 07:45:18;;;;;;;0.20;0.20;;;;;;;3.50;71.61;100620.69;4829264;29;20122;-82
2023/12/01 07:47:44;;;;;;;0.10;0.10;;;;;;;3.47;71.46;100632.72;4814089;29;20046;-84
2023/12/01 07:50:10;;;;;;;0.20;0.20;;;;;;;3.57;71.10;100645.28;4804442;29;20041;-86
2023/12/01 07:52:36;;;;;;;0.10;0.10;;;;;;;3.60;71.07;100664.84;4819206;29;20031;-86
2023/12/01 07:55:03;;;;;;;0.20;0.20;;;;;;;3.63;70.64;100675.84;4819838;29;20497;-86
2023/12/01 07:57:28;;;;;;;0.20;0.20;;;;;;;3.61;70.98;100680.16;4819677;29;20038;-85
2023/12/01 07:59:54;;;;;;;0.20;0.20;;;;;;;3.61;70.77;100675.03;4819872;29;20034;-85
2023/12/01 08:02:19;;;;;;;0.20;0.20;;;;;;;3.68;71.22;100671.50;4832099;29;20035;-86
2023/12/01 08:04:45;;;;;;;0.20;0.20;;;;;;;3.78;70.56;100667.03;4793072;29;20045;-84
2023/12/01 08:07:11;;;;;;;0.20;0.20;;;;;;;3.89;70.88;100666.81;4804620;29;20038;-84
2023/12/01 08:09:37;;;;;;;0.20;0.20;;;;;;;3.96;71.35;100676.06;4819434;29;20030;-86
2023/12/01 08:12:03;;;;;;;0.20;0.20;;;;;;;3.88;70.52;100665.97;4819835;29;20040;-85
2023/12/01 08:14:29;;;;;;;0.20;0.20;;;;;;;3.94;70.29;100660.75;4823385;29;20034;-86
2023/12/01 08:16:55;;;;;;;0.20;0.20;;;;;;;4.14;69.85;100687.63;4827144;29;20438;-86
2023/12/01 08:19:20;;;;;;;0.20;0.20;;;;;;;4.20;69.47;100675.53;4822294;29;20057;-85
2023/12/01 08:21:46;;;;;;;0.20;0.20;;;;;;;4.23;69.31;100680.59;4822240;29;20037;-88
2023/12/01 08:24:12;;;;;;;0.20;0.20;;;;;;;4.37;68.85;100682.84;4799767;29;20441;-90
2023/12/01 08:26:38;;;;;;;0.20;0.20;;;;;;;4.35;69.63;100688.88;4813119;29;20039;-83
2023/12/01 08:29:04;;;;;;;0.20;0.20;;;;;;;4.51;69.71;100679.94;4801607;29;20498;-88
2023/12/01 08:31:30;;;;;;;0.20;0.20;;;;;;;4.58;69.07;100669.53;4809642;29;20506;-90
2023/12/01 08:33:56;;;;;;;0.20;0.20;;;;;;;4.59;68.35;100667.81;4799913;29;20506;-90
2023/12/01 08:36:22;;;;;;;0.20;0.20;;;;;;;4.78;68.04;100689.56;4815392;29;20600;-82
2023/12/01 08:38:47;;;;;;;0.20;0.20;;;;;;;4.89;67.62;100672.19;4806687;29;20088;-90
2023/12/01 08:41:13;;;;;;;0.20;0.20;;;;;;;4.93;67.48;100667.00;4828756;29;20088;-83
2023/12/01 08:43:38;;;;;;;0.10;0.10;;;;;;;4.88;67.11;100647.44;4842171;29;20038;-89
2023/12/01 08:46:04;;;;;;;0.20;0.20;;;;;;;5.03;65.63;100673.59;4840677;29;20365;-89
2023/12/01 08:48:30;;;;;;;0.20;0.20;;;;;;;5.00;66.30;100653.13;4825652;29;20034;-87
2023/12/01 08:50:55;;;;;;;0.20;0.20;;;;;;;5.02;66.49;100656.53;4841216;29;20030;-89
2023/12/01 08:53:22;;;;;;;0.20;0.20;;;;;;;5.13;66.04;100660.50;4856211;29;20033;-89
2023/12/01 08:55:48;;;;;;;0.20;0.20;;;;;;;5.21;65.68;100655.16;4828737;29;20061;-87
2023/12/01 08:58:14;;;;;;;0.20;0.20;;;;;;;5.33;66.35;100661.69;4826110;29;20076;-87
2023/12/01 09:00:40;;;;;;;0.20;0.20;;;;;;;5.33;65.49;100623.22;4826753;29;20029;-92
2023/12/01 09:03:06;;;;;;;0.20;0.20;;;;;;;5.47;65.13;100665.56;4827588;29;20040;-92
2023/12/01 09:05:35;;;;;;;0.20;0.20;;;;;;;5.52;65.47;100667.16;4809955;29;20481;-94
2023/12/01 09:08:05;;;;;;;0.20;0.20;;;;;;;5.60;65.10;100665.22;4838870;29;20044;-89
2023/12/01 09:10:31;;;;;;;0.20;0.20;;;;;;;5.64;64.58;100657.41;4833008;29;20167;-84
2023/12/01 09:12:57;;;;;;;0.20;0.20;;;;;;;5.84;70.74;100646.56;4810534;29;20054;-85
2023/12/01 09:15:23;;;;;;;0.20;0.20;;;;;;;6.09;64.29;100653.56;4809817;29;20113;-82
2023/12/01 09:17:48;;;;;;;0.20;0.20;;;;;;;6.34;64.29;100664.78;4808884;29;20120;-82
2023/12/01 09:20:14;;;;;;;0.20;0.20;;;;;;;6.22;63.32;100665.16;4840457;29;20074;-86
2023/12/01 09:22:39;;;;;;;0.20;0.20;;;;;;;6.17;63.79;100641.34;4822717;29;20033;-85
2023/12/01 09:25:05;;;;;;;0.20;0.20;;;;;;;6.35;63.74;100643.34;4823923;29;20090;-89
2023/12/01 09:27:31;;;;;;;0.20;0.20;;;;;;;6.42;63.75;100652.53;4826477;29;20037;-89
2023/12/01 09:29:56;;;;;;;0.20;0.20;;;;;;;6.50;64.10;100629.19;4839106;29;20030;-86
2023/12/01 09:32:22;;;;;;;0.20;0.20;;;;;;;6.79;63.27;100620.53;4823824;29;20076;-89
2023/12/01 09:34:48;;;;;;;0.20;0.20;;;;;;;6.58;62.77;100612.59;4823210;29;20504;-86
2023/12/01 09:37:14;;;;;;;0.20;0.20;;;;;;;6.61;62.51;100638.22;4837208;29;20042;-84
2023/12/01 09:39:40;;;;;;;0.10;0.10;;;;;;;6.58;61.70;100622.88;4808130;29;20461;-85
2023/12/01 09:42:06;;;;;;;0.10;0.10;;;;;;;6.54;61.87;100611.03;4837058;29;20144;-84
2023/12/01 09:44:32;;;;;;;0.20;0.20;;;;;;;6.53;62.30;100585.38;4822243;29;20132;-86
2023/12/01 09:47:00;;;;;;;0.20;0.20;;;;;;;6.57;62.29;100590.34;4819399;29;20042;-87
2023/12/01 09:49:27;;;;;;;0.20;0.20;;;;;;;6.70;61.76;100615.69;4823022;29;20094;-89
2023/12/01 09:51:52;;;;;;;0.20;0.20;;;;;;;6.61;62.18;100594.53;4824300;29;20040;-84
2023/12/01 09:54:18;;;;;;;0.20;0.20;;;;;;;6.80;61.75;100601.63;4821074;29;20038;-83
2023/12/01 09:56:44;;;;;;;0.10;0.10;;;;;;;6.47;61.59;100576.13;4805844;29;20034;-85
2023/12/01 09:59:10;;;;;;;0.20;0.20;;;;;;;6.61;61.51;100586.81;4805381;29;20098;-85
2023/12/01 10:01:36;;;;;;;0.20;0.20;;;;;;;6.58;59.93;100591.19;4824471;29;20038;-87
2023/12/01 10:04:01;;;;;;;0.15;0.15;;;;;;;6.71;60.23;100612.22;4830832;29;20049;-85
2023/12/01 10:06:27;;;;;;;0.20;0.20;;;;;;;6.85;60.14;100579.16;4806019;29;20034;-88
2023/12/01 10:08:52;;;;;;;0.10;0.10;;;;;;;7.06;58.49;100583.53;4817739;29;20041;-86
2023/12/01 10:11:23;;;;;;;0.20;0.20;;;;;;;7.15;58.72;100598.66;4823539;29;20129;-83
2023/12/01 10:13:52;;;;;;;0.20;0.20;;;;;;;7.35;58.87;100592.81;4818153;29;20034;-90
2023/12/01 10:16:18;;;;;;;0.20;0.20;;;;;;;7.43;58.46;100602.84;4792242;29;20041;-87
2023/12/01 10:18:57;;;;;;;0.20;0.20;;;;;;;7.34;58.53;100572.28;4806707;29;20030;-91
2023/12/01 10:21:40;;;;;;;0.20;0.20;;;;;;;7.36;58.48;100547.31;4824813;29;20113;-92
2023/12/01 10:24:15;;;;;;;0.20;0.20;;;;;;;7.37;59.51;100561.88;4809268;29;20042;-93
2023/12/01 10:26:41;;;;;;;0.20;0.20;;;;;;;7.50;58.09;100539.94;4837925;29;20041;-87
2023/12/01 10:29:16;;;;;;;0.20;0.20;;;;;;;7.58;58.89;100545.66;4834769;29;20451;-85
2023/12/01 10:31:47;;;;;;;0.17;0.17;;;;;;;7.65;58.35;100556.53;4802883;29;20038;-86
2023/12/01 10:34:12;;;;;;;0.10;0.10;;;;;;;7.57;59.25;100538.81;4807600;29;20038;-84
2023/12/01 10:36:38;;;;;;;0.17;0.17;;;;;;;7.42;58.79;100526.50;4807899;29;20493;-85
2023/12/01 10:39:03;;;;;;;0.20;0.20;;;;;;;7.42;58.18;100522.19;4791327;29;20762;-82
2023/12/01 10:41:29;;;;;;;0.20;0.20;;;;;;;7.45;58.55;100523.81;4821562;29;20053;-84
2023/12/01 10:43:54;;;;;;;0.20;0.20;;;;;;;7.31;62.32;100498.59;4801764;29;20033;-84
2023/12/01 10:46:20;;;;;;;0.20;0.20;;;;;;;7.42;61.15;100490.47;4798008;29;20054;-88
2023/12/01 10:48:45;;;;;;;0.20;0.20;;;;;;;7.48;58.48;100491.09;4806125;29;20038;-87
2023/12/01 10:51:12;;;;;;;0.20;0.20;;;;;;;7.31;57.98;100492.63;4795601;29;20061;-92
2023/12/01 10:53:39;;;;;;;0.20;0.20;;;;;;;7.35;57.28;100514.75;4829252;29;20044;-91
2023/12/01 10:56:06;;;;;;;0.20;0.20;;;;;;;7.30;57.78;100522.66;4842855;29;20026;-91
2023/12/01 10:58:34;;;;;;;0.20;0.20;;;;;;;7.27;58.10;100535.63;4827695;29;20045;-89
2023/12/01 11:01:00;;;;;;;0.20;0.20;;;;;;;7.20;57.55;100503.31;4797468;29;20086;-89
2023/12/01 11:03:30;;;;;;;0.20;0.20;;;;;;;7.35;58.16;100512.19;4835761;29;20042;-88
2023/12/01 11:05:59;;;;;;;0.10;0.10;;;;;;;7.41;56.91;100499.94;4803779;29;20082;-89
2023/12/01 11:08:58;;;;;;;0.20;0.20;;;;;;;7.47;56.60;100534.88;4836348;29;20084;-85
2023/12/01 11:11:34;;;;;;;0.20;0.20;;;;;;;7.44;56.04;100522.13;4821011;29;20478;-89
2023/12/01 11:14:19;;;;;;;0.20;0.20;;;;;;;7.51;56.39;100520.19;4800986;29;20042;-88
2023/12/01 11:16:47;;;;;;;0.20;0.20;;;;;;;7.51;56.06;100508.16;4822525;29;20462;-87
2023/12/01 11:19:13;;;;;;;0.20;0.20;;;;;;;7.30;55.78;100514.94;4836546;29;20128;-88
2023/12/01 11:21:42;;;;;;;0.20;0.20;;;;;;;7.36;55.95;100506.16;4852074;29;20519;-89
2023/12/01 11:24:31;;;;;;;0.20;0.20;;;;;;;7.34;56.53;100505.38;4826361;29;20041;-87
2023/12/01 11:27:04;;;;;;;0.20;0.20;;;;;;;7.40;56.18;100507.72;4824099;29;20030;-88
2023/12/01 11:29:30;;;;;;;0.20;0.20;;;;;;;7.47;55.59;100498.84;4787270;29;20046;-89
2023/12/01 11:31:58;;;;;;;0.20;0.20;;;;;;;7.44;55.10;100511.84;4819728;29;20125;-84
2023/12/01 11:34:25;;;;;;;0.20;0.20;;;;;;;7.35;55.06;100507.03;4813622;29;20042;-84